• Join FlightAware (Why Join?)
  • Login
  • US Flag 
02:26AM EDT


 

Airport Tracker/Info


-or-


 

Live Flight TrackerFlight Track Log ✈ SWA534 ✈ 18-Aug-2013 ✈ KPDX - KSLC

Flight Track Log - Related Links

Times and Time Zones

All times are in EDT time to prevent confusion due to time zone crossing. See the SWA534 flight status page for this flight to view local times or setup timezone preferences in your user account.

Time Position Orientation Groundspeed Altitude Reporting Facility
EDT Latitude Longitude Course Direction KTS MPH feet Rate Location/Type
10:36PM 45.6175 -122.6717 293° West 209 241 2,600  Level Seattle Center
10:37PM 45.6475 -122.7458 300° West 217 250 5,600 2,880 Climbing Seattle Center
10:38PM 45.6253 -122.8075 243° Southwest 247 284 8,500 2,400 Climbing Seattle Center
10:40PM 45.5756 -122.7331 134° Southeast 280 322 10,800 1,740 Climbing Seattle Center
10:41PM 45.5294 -122.6217 121° Southeast 315 362 12,300 2,160 Climbing Seattle Center
10:42PM 45.4650 -122.4683 121° Southeast 370 426 15,300 2,700 Climbing Seattle Center
10:43PM 45.4106 -122.3411 121° Southeast 376 433 17,800 2,160 Climbing Seattle Center
10:44PM 45.3561 -122.2114 121° Southeast 380 437 19,700 1,920 Climbing Seattle Center
10:45PM 45.2986 -122.0789 122° Southeast 391 450 21,800 1,800 Climbing Seattle Center
10:46PM 45.2439 -121.9367 119° Southeast 404 465 23,400 1,620 Climbing Seattle Center
10:47PM 45.2089 -121.7922 109° East 417 480 25,100 1,380 Climbing Seattle Center
10:48PM 45.1675 -121.6361 111° Southeast 422 486 26,300 1,260 Climbing Seattle Center
10:49PM 45.1239 -121.4708 110° East 445 512 27,700 1,320 Climbing Seattle Center
10:50PM 45.0817 -121.3061 110° East 447 514 29,000 1,320 Climbing Seattle Center
10:51PM 45.0286 -121.1031 110° East 460 529 30,500 1,440 Climbing Seattle Center
10:52PM 44.9828 -120.9342 111° Southeast 463 533 32,000 1,380 Climbing Seattle Center
10:53PM 44.9389 -120.7694 111° Southeast 453 521 33,400 960 Climbing Seattle Center
10:54PM 44.8944 -120.6050 111° Southeast 451 519 34,000 660 Climbing Seattle Center
10:55PM 44.8503 -120.4422 111° Southeast 448 516 34,800 1,020 Climbing Seattle Center
10:56PM 44.8064 -120.2839 111° Southeast 440 506 36,100 1,020 Climbing Seattle Center
10:57PM 44.7631 -120.1264 111° Southeast 440 506 36,900 420 Climbing Seattle Center
10:58PM 44.7197 -119.9711 111° Southeast 436 502 37,000  Climbing Seattle Center
10:59PM 44.6683 -119.7814 111° Southeast 438 504 37,000  Level Seattle Center
11:00PM 44.6239 -119.6242 112° Southeast 439 505 37,000  Level Seattle Center
11:01PM 44.5778 -119.4672 112° Southeast 437 503 37,000  Level Seattle Center
11:02PM 44.5319 -119.3100 112° Southeast 437 503 37,000  Level Seattle Center
11:03PM 44.4858 -119.1553 113° Southeast 433 498 37,000  Level Seattle Center
11:04PM 44.4406 -118.9992 112° Southeast 435 501 37,000  Level Seattle Center
11:05PM 44.3928 -118.8442 113° Southeast 434 499 37,000  Level Seattle Center
11:06PM 44.3450 -118.6881 113° Southeast 436 502 37,000  Level Salt Lake Center
11:07PM 44.2975 -118.5336 113° Southeast 435 501 37,000  Level Salt Lake Center
11:08PM 44.2522 -118.3781 112° Southeast 436 502 37,000  Level Seattle Center
11:09PM 44.2036 -118.2253 114° Southeast 434 499 37,000  Level Seattle Center
11:10PM 44.1422 -118.0658 118° Southeast 434 499 37,000  Level Seattle Center
11:11PM 44.0761 -117.8983 119° Southeast 444 511 37,000  Level Salt Lake Center
11:12PM 44.0244 -117.7556 117° Southeast 435 501 37,000  Level Salt Lake Center
11:13PM 43.9622 -117.5906 118° Southeast 434 499 37,000  Level Salt Lake Center
11:14PM 43.9083 -117.4503 118° Southeast 432 497 37,000  Level Salt Lake Center
11:15PM 43.8547 -117.3078 118° Southeast 436 502 37,000  Level Salt Lake Center
11:16PM 43.7919 -117.1453 118° Southeast 431 496 37,000  Level Salt Lake Center
11:17PM 43.7397 -117.0072 118° Southeast 427 491 37,000  Level Salt Lake Center
11:18PM 43.6767 -116.8461 118° Southeast 426 490 37,000  Level Salt Lake Center
11:19PM 43.6236 -116.7100 118° Southeast 425 489 37,000  Level Salt Lake Center
11:20PM 43.5622 -116.5500 118° Southeast 423 487 37,000  Level Salt Lake Center
11:21PM 43.5089 -116.4147 118° Southeast 420 483 37,000  Level Salt Lake Center
11:22PM 43.4556 -116.2800 119° Southeast 419 482 37,000  Level Salt Lake Center
11:23PM 43.3925 -116.1219 119° Southeast 424 488 37,000  Level Salt Lake Center
11:24PM 43.3378 -115.9850 119° Southeast 427 491 37,000  Level Salt Lake Center
11:25PM 43.2739 -115.8222 118° Southeast 433 498 37,000  Level Salt Lake Center
11:26PM 43.2172 -115.6819 119° Southeast 440 506 37,000  Level Salt Lake Center
11:27PM 43.1600 -115.5419 119° Southeast 441 507 37,000  Level Salt Lake Center
11:28PM 43.0928 -115.3797 120° Southeast 440 506 37,000  Level Salt Lake Center
11:30PM 43.0356 -115.2406 119° Southeast 439 505 37,000  Level Salt Lake Center
11:31PM 42.9783 -115.1019 119° Southeast 437 503 37,000  Level Salt Lake Center
11:32PM 42.9131 -114.9425 119° Southeast 431 496 37,000  Level Salt Lake Center
11:33PM 42.8561 -114.8061 120° Southeast 433 498 37,000  Level Salt Lake Center
11:34PM 42.7897 -114.6478 120° Southeast 431 496 37,000  Level Salt Lake Center
11:35PM 42.7272 -114.5003 120° Southeast 435 501 37,000  Level Salt Lake Center
11:36PM 42.6672 -114.3586 120° Southeast 434 499 37,000  Level Salt Lake Center
11:37PM 42.6064 -114.2183 120° Southeast 433 498 37,000  Level Salt Lake Center
11:38PM 42.5419 -114.0822 123° Southeast 427 491 37,000  Level Salt Lake Center
11:39PM 42.4633 -113.9597 131° Southeast 430 495 37,000  Level Salt Lake Center
11:40PM 42.3864 -113.8364 130° Southeast 430 495 37,000  Level Salt Lake Center
11:41PM 42.3086 -113.7117 130° Southeast 434 499 37,000  Level Salt Lake Center
11:42PM 42.2303 -113.5853 130° Southeast 438 504 37,000  Level Salt Lake Center
11:43PM 42.1522 -113.4608 130° Southeast 437 503 37,000 -1,080 Level Salt Lake Center
11:44PM 42.0728 -113.3344 130° Southeast 443 510 34,900 -2,940 Descending Salt Lake Center
11:45PM 41.9767 -113.1814 130° Southeast 447 514 31,100 -3,300 Descending Salt Lake Center
11:46PM 41.8936 -113.0528 131° Southeast 455 524 28,300 -2,640 Descending Salt Lake Center
11:47PM 41.8144 -112.9286 131° Southeast 442 509 25,800 -2,400 Descending Salt Lake Center
11:48PM 41.7383 -112.8092 130° Southeast 427 491 23,500 -2,340 Descending Salt Lake Center
11:49PM 41.6636 -112.6950 131° Southeast 411 473 21,100 -2,400 Descending Salt Lake Center
11:50PM 41.5942 -112.5736 127° Southeast 394 453 18,800 -2,160 Descending Salt Lake Center
11:50PM 41.5614 -112.5247 132° Southeast 389 448 17,900 -1,740 Descending Salt Lake Center
11:51PM 41.5217 -112.4794 140° Southeast 381 438 17,000 -600 Descending Salt Lake Center
11:52PM 41.4325 -112.4078 149° Southeast 376 433 17,000 -720 Level Salt Lake Center
11:53PM 41.3422 -112.3442 152° Southeast 366 421 15,600 -1,740 Descending Salt Lake Center
11:54PM 41.2558 -112.2822 152° Southeast 355 409 13,500 -1,320 Descending Salt Lake Center
11:55PM 41.1556 -112.2072 151° Southeast 347 399 13,000 -600 Descending Salt Lake Center
11:56PM 41.0739 -112.1475 151° Southeast 335 386 12,300 -840 Descending Salt Lake Center
11:57PM 40.9869 -112.1269 170° South 318 366 11,300 -660 Descending Salt Lake Center
11:58PM 40.9056 -112.1100 171° South 295 339 11,000 -180 Descending Salt Lake Center
11:59PM 40.8342 -112.1017 175° South 257 296 11,000 -180 Level Salt Lake Center
12:00AM 40.7667 -112.0847 169° South 249 287 10,700 -840 Descending Salt Lake Center
12:01AM 40.6997 -112.0678 169° South 245 282 9,400 -1,200 Descending Salt Lake Center
12:02AM 40.6394 -112.0419 162° South 229 264 8,300 -1,380 Descending Salt Lake Center
12:03AM 40.6597 -111.9656 71° East 203 234 6,700 -1,440 Descending Salt Lake Center
12:04AM 40.7056 -111.9647 North 170 196 5,400 -1,020 Descending Salt Lake Center
12:05AM 40.7481 -111.9700 355° North 156 180 4,700 -600 Descending Salt Lake Center
12:06AM 40.7908 -111.9747 355° North 154 177 4,200 -540 Descending Salt Lake Center
12:08AM 40.7884 -111.9778 180° South  Level Estimated